sensor_id;sensor_type;location;lat;lon;timestamp;P1;durP1;ratioP1;P2;durP2;ratioP2
3347;SDS011;1687;49.540;8.574;2023-04-03T00:00:03;13.80;;;2.83;;
3347;SDS011;1687;49.540;8.574;2023-04-03T00:02:30;4.67;;;2.70;;
3347;SDS011;1687;49.540;8.574;2023-04-03T00:04:56;5.07;;;2.60;;
3347;SDS011;1687;49.540;8.574;2023-04-03T00:07:21;4.60;;;2.10;;
3347;SDS011;1687;49.540;8.574;2023-04-03T00:09:47;4.07;;;2.13;;
3347;SDS011;1687;49.540;8.574;2023-04-03T00:12:13;4.93;;;2.20;;
3347;SDS011;1687;49.540;8.574;2023-04-03T00:14:38;6.07;;;2.47;;
3347;SDS011;1687;49.540;8.574;2023-04-03T00:17:04;4.73;;;2.30;;
3347;SDS011;1687;49.540;8.574;2023-04-03T00:19:30;4.87;;;2.37;;
3347;SDS011;1687;49.540;8.574;2023-04-03T00:21:55;8.37;;;4.77;;
3347;SDS011;1687;49.540;8.574;2023-04-03T00:24:21;6.47;;;2.80;;
3347;SDS011;1687;49.540;8.574;2023-04-03T00:26:47;3.83;;;2.20;;
3347;SDS011;1687;49.540;8.574;2023-04-03T00:29:12;8.47;;;2.87;;
3347;SDS011;1687;49.540;8.574;2023-04-03T00:31:38;12.63;;;3.60;;
3347;SDS011;1687;49.540;8.574;2023-04-03T00:34:05;4.73;;;2.43;;
3347;SDS011;1687;49.540;8.574;2023-04-03T00:36:30;7.37;;;3.30;;
3347;SDS011;1687;49.540;8.574;2023-04-03T00:38:56;7.50;;;3.30;;
3347;SDS011;1687;49.540;8.574;2023-04-03T00:41:22;5.03;;;3.17;;
3347;SDS011;1687;49.540;8.574;2023-04-03T00:43:47;11.17;;;2.70;;
3347;SDS011;1687;49.540;8.574;2023-04-03T00:46:13;5.60;;;2.83;;
3347;SDS011;1687;49.540;8.574;2023-04-03T00:48:44;15.37;;;5.27;;
3347;SDS011;1687;49.540;8.574;2023-04-03T00:51:16;10.53;;;3.90;;
3347;SDS011;1687;49.540;8.574;2023-04-03T00:53:49;10.50;;;3.00;;
3347;SDS011;1687;49.540;8.574;2023-04-03T00:56:21;7.63;;;2.90;;
3347;SDS011;1687;49.540;8.574;2023-04-03T01:01:52;5.03;;;2.97;;
3347;SDS011;1687;49.540;8.574;2023-04-03T01:04:34;4.20;;;2.43;;
3347;SDS011;1687;49.540;8.574;2023-04-03T01:07:22;4.53;;;2.10;;
3347;SDS011;1687;49.540;8.574;2023-04-03T01:09:53;5.47;;;2.60;;
3347;SDS011;1687;49.540;8.574;2023-04-03T01:12:24;15.80;;;3.10;;
3347;SDS011;1687;49.540;8.574;2023-04-03T01:14:55;8.87;;;3.50;;
3347;SDS011;1687;49.540;8.574;2023-04-03T01:17:52;10.63;;;3.10;;
3347;SDS011;1687;49.540;8.574;2023-04-03T01:25:45;4.13;;;2.60;;
3347;SDS011;1687;49.540;8.574;2023-04-03T01:28:15;4.30;;;2.80;;
3347;SDS011;1687;49.540;8.574;2023-04-03T01:33:39;5.73;;;3.23;;
3347;SDS011;1687;49.540;8.574;2023-04-03T01:36:05;6.13;;;3.00;;
3347;SDS011;1687;49.540;8.574;2023-04-03T01:38:34;5.17;;;2.63;;
3347;SDS011;1687;49.540;8.574;2023-04-03T01:41:00;5.47;;;3.23;;
3347;SDS011;1687;49.540;8.574;2023-04-03T01:43:26;5.73;;;2.43;;
3347;SDS011;1687;49.540;8.574;2023-04-03T01:45:51;4.60;;;2.90;;
3347;SDS011;1687;49.540;8.574;2023-04-03T01:48:19;5.60;;;2.50;;
3347;SDS011;1687;49.540;8.574;2023-04-03T01:50:45;6.70;;;3.20;;
3347;SDS011;1687;49.540;8.574;2023-04-03T01:53:11;8.00;;;4.50;;
3347;SDS011;1687;49.540;8.574;2023-04-03T01:55:37;5.93;;;2.60;;
3347;SDS011;1687;49.540;8.574;2023-04-03T01:58:03;12.57;;;3.40;;
3347;SDS011;1687;49.540;8.574;2023-04-03T02:00:28;9.23;;;3.80;;
3347;SDS011;1687;49.540;8.574;2023-04-03T02:02:54;10.33;;;4.30;;
3347;SDS011;1687;49.540;8.574;2023-04-03T02:05:20;8.27;;;3.03;;
3347;SDS011;1687;49.540;8.574;2023-04-03T02:07:46;7.47;;;3.73;;
3347;SDS011;1687;49.540;8.574;2023-04-03T02:10:11;7.00;;;3.30;;
3347;SDS011;1687;49.540;8.574;2023-04-03T02:12:38;3.73;;;2.80;;
3347;SDS011;1687;49.540;8.574;2023-04-03T02:15:04;5.30;;;3.00;;
3347;SDS011;1687;49.540;8.574;2023-04-03T02:17:30;7.63;;;3.10;;
3347;SDS011;1687;49.540;8.574;2023-04-03T02:19:56;5.53;;;3.20;;
3347;SDS011;1687;49.540;8.574;2023-04-03T02:22:22;7.83;;;3.30;;
3347;SDS011;1687;49.540;8.574;2023-04-03T02:24:47;6.63;;;2.73;;
3347;SDS011;1687;49.540;8.574;2023-04-03T02:27:13;5.90;;;3.50;;
3347;SDS011;1687;49.540;8.574;2023-04-03T02:29:39;6.40;;;3.70;;
3347;SDS011;1687;49.540;8.574;2023-04-03T02:32:05;5.63;;;3.30;;
3347;SDS011;1687;49.540;8.574;2023-04-03T02:34:30;5.23;;;3.27;;
3347;SDS011;1687;49.540;8.574;2023-04-03T02:36:56;6.60;;;3.77;;
3347;SDS011;1687;49.540;8.574;2023-04-03T02:39:22;9.13;;;3.97;;
3347;SDS011;1687;49.540;8.574;2023-04-03T02:41:48;6.57;;;3.73;;
3347;SDS011;1687;49.540;8.574;2023-04-03T02:44:13;8.73;;;3.63;;
3347;SDS011;1687;49.540;8.574;2023-04-03T02:46:39;9.17;;;3.10;;
3347;SDS011;1687;49.540;8.574;2023-04-03T02:49:05;6.73;;;2.57;;
3347;SDS011;1687;49.540;8.574;2023-04-03T02:51:31;8.63;;;3.97;;
3347;SDS011;1687;49.540;8.574;2023-04-03T02:53:57;5.20;;;2.97;;
3347;SDS011;1687;49.540;8.574;2023-04-03T02:56:22;7.33;;;3.53;;
3347;SDS011;1687;49.540;8.574;2023-04-03T02:58:48;7.77;;;3.60;;
3347;SDS011;1687;49.540;8.574;2023-04-03T03:01:14;6.03;;;3.23;;
3347;SDS011;1687;49.540;8.574;2023-04-03T03:03:40;5.50;;;3.33;;
3347;SDS011;1687;49.540;8.574;2023-04-03T03:06:10;7.47;;;2.73;;
3347;SDS011;1687;49.540;8.574;2023-04-03T03:08:38;5.70;;;3.47;;
3347;SDS011;1687;49.540;8.574;2023-04-03T03:11:05;7.47;;;2.43;;
3347;SDS011;1687;49.540;8.574;2023-04-03T03:13:31;4.27;;;2.87;;
3347;SDS011;1687;49.540;8.574;2023-04-03T03:15:57;5.40;;;2.90;;
3347;SDS011;1687;49.540;8.574;2023-04-03T03:18:23;4.10;;;2.23;;
3347;SDS011;1687;49.540;8.574;2023-04-03T03:20:51;3.73;;;2.37;;
3347;SDS011;1687;49.540;8.574;2023-04-03T03:23:18;9.13;;;3.00;;
3347;SDS011;1687;49.540;8.574;2023-04-03T03:25:44;7.03;;;3.17;;
3347;SDS011;1687;49.540;8.574;2023-04-03T03:28:10;4.67;;;2.50;;
3347;SDS011;1687;49.540;8.574;2023-04-03T03:30:36;7.40;;;3.33;;
3347;SDS011;1687;49.540;8.574;2023-04-03T03:33:02;5.23;;;2.70;;
3347;SDS011;1687;49.540;8.574;2023-04-03T03:35:28;8.10;;;3.70;;
3347;SDS011;1687;49.540;8.574;2023-04-03T03:37:53;11.30;;;4.47;;
3347;SDS011;1687;49.540;8.574;2023-04-03T03:40:19;8.13;;;4.20;;
3347;SDS011;1687;49.540;8.574;2023-04-03T03:42:45;6.07;;;3.27;;
3347;SDS011;1687;49.540;8.574;2023-04-03T03:45:10;6.63;;;3.00;;
3347;SDS011;1687;49.540;8.574;2023-04-03T03:47:36;7.87;;;3.53;;
3347;SDS011;1687;49.540;8.574;2023-04-03T03:50:02;7.40;;;3.87;;
3347;SDS011;1687;49.540;8.574;2023-04-03T03:52:28;5.33;;;3.40;;
3347;SDS011;1687;49.540;8.574;2023-04-03T03:54:55;4.43;;;2.53;;
3347;SDS011;1687;49.540;8.574;2023-04-03T03:57:21;5.47;;;2.87;;
3347;SDS011;1687;49.540;8.574;2023-04-03T03:59:46;7.63;;;4.17;;
3347;SDS011;1687;49.540;8.574;2023-04-03T04:02:13;9.43;;;3.20;;
3347;SDS011;1687;49.540;8.574;2023-04-03T04:04:39;12.03;;;3.13;;
3347;SDS011;1687;49.540;8.574;2023-04-03T04:07:05;11.30;;;3.63;;
3347;SDS011;1687;49.540;8.574;2023-04-03T04:09:31;6.87;;;3.23;;
3347;SDS011;1687;49.540;8.574;2023-04-03T04:11:57;8.00;;;3.90;;
3347;SDS011;1687;49.540;8.574;2023-04-03T04:14:22;6.43;;;3.40;;
3347;SDS011;1687;49.540;8.574;2023-04-03T04:16:48;6.10;;;3.50;;
3347;SDS011;1687;49.540;8.574;2023-04-03T04:19:14;10.57;;;4.47;;
3347;SDS011;1687;49.540;8.574;2023-04-03T04:21:39;9.50;;;4.57;;
3347;SDS011;1687;49.540;8.574;2023-04-03T04:24:06;7.40;;;4.00;;
3347;SDS011;1687;49.540;8.574;2023-04-03T04:26:33;10.53;;;3.83;;
3347;SDS011;1687;49.540;8.574;2023-04-03T04:28:59;6.97;;;4.20;;
3347;SDS011;1687;49.540;8.574;2023-04-03T04:31:25;9.03;;;4.17;;
3347;SDS011;1687;49.540;8.574;2023-04-03T04:33:51;7.77;;;4.67;;
3347;SDS011;1687;49.540;8.574;2023-04-03T04:36:17;7.50;;;3.43;;
3347;SDS011;1687;49.540;8.574;2023-04-03T04:38:43;7.50;;;3.77;;
3347;SDS011;1687;49.540;8.574;2023-04-03T04:41:09;5.47;;;3.10;;
3347;SDS011;1687;49.540;8.574;2023-04-03T04:43:35;7.83;;;4.50;;
3347;SDS011;1687;49.540;8.574;2023-04-03T04:46:01;6.10;;;3.57;;
3347;SDS011;1687;49.540;8.574;2023-04-03T04:48:31;8.33;;;3.50;;
3347;SDS011;1687;49.540;8.574;2023-04-03T04:50:58;9.40;;;4.17;;
3347;SDS011;1687;49.540;8.574;2023-04-03T04:53:24;7.30;;;3.67;;
3347;SDS011;1687;49.540;8.574;2023-04-03T04:55:49;6.33;;;3.83;;
3347;SDS011;1687;49.540;8.574;2023-04-03T04:58:15;10.83;;;3.73;;
3347;SDS011;1687;49.540;8.574;2023-04-03T05:00:41;5.83;;;3.13;;
3347;SDS011;1687;49.540;8.574;2023-04-03T05:03:06;9.60;;;4.83;;
3347;SDS011;1687;49.540;8.574;2023-04-03T05:05:32;6.50;;;3.90;;
3347;SDS011;1687;49.540;8.574;2023-04-03T05:07:58;8.70;;;4.27;;
3347;SDS011;1687;49.540;8.574;2023-04-03T05:10:23;5.33;;;3.63;;
3347;SDS011;1687;49.540;8.574;2023-04-03T05:12:49;10.27;;;3.23;;
3347;SDS011;1687;49.540;8.574;2023-04-03T05:15:15;5.90;;;3.63;;
3347;SDS011;1687;49.540;8.574;2023-04-03T05:17:40;15.93;;;3.27;;
3347;SDS011;1687;49.540;8.574;2023-04-03T05:20:06;13.77;;;3.80;;
3347;SDS011;1687;49.540;8.574;2023-04-03T05:22:32;7.07;;;4.40;;
3347;SDS011;1687;49.540;8.574;2023-04-03T05:24:58;6.17;;;3.77;;
3347;SDS011;1687;49.540;8.574;2023-04-03T05:27:24;7.83;;;3.97;;
3347;SDS011;1687;49.540;8.574;2023-04-03T05:29:50;13.33;;;4.53;;
3347;SDS011;1687;49.540;8.574;2023-04-03T05:32:17;5.80;;;3.50;;
3347;SDS011;1687;49.540;8.574;2023-04-03T05:34:43;7.83;;;4.17;;
3347;SDS011;1687;49.540;8.574;2023-04-03T05:37:09;6.67;;;3.43;;
3347;SDS011;1687;49.540;8.574;2023-04-03T05:39:35;11.07;;;3.73;;
3347;SDS011;1687;49.540;8.574;2023-04-03T05:42:01;5.60;;;3.43;;
3347;SDS011;1687;49.540;8.574;2023-04-03T05:44:26;10.60;;;5.37;;
3347;SDS011;1687;49.540;8.574;2023-04-03T05:46:52;14.60;;;4.73;;
3347;SDS011;1687;49.540;8.574;2023-04-03T05:49:18;8.80;;;4.10;;
3347;SDS011;1687;49.540;8.574;2023-04-03T05:51:43;10.30;;;4.37;;
3347;SDS011;1687;49.540;8.574;2023-04-03T05:54:20;7.40;;;4.17;;
3347;SDS011;1687;49.540;8.574;2023-04-03T05:56:53;5.60;;;3.43;;
3347;SDS011;1687;49.540;8.574;2023-04-03T05:59:19;4.70;;;3.17;;
3347;SDS011;1687;49.540;8.574;2023-04-03T06:01:45;7.00;;;4.00;;
3347;SDS011;1687;49.540;8.574;2023-04-03T06:04:12;5.00;;;3.20;;
3347;SDS011;1687;49.540;8.574;2023-04-03T06:06:45;17.03;;;3.70;;
3347;SDS011;1687;49.540;8.574;2023-04-03T06:09:12;10.60;;;4.47;;
3347;SDS011;1687;49.540;8.574;2023-04-03T06:11:39;5.40;;;2.90;;
3347;SDS011;1687;49.540;8.574;2023-04-03T06:14:06;14.60;;;6.00;;
3347;SDS011;1687;49.540;8.574;2023-04-03T06:16:34;10.90;;;4.20;;
3347;SDS011;1687;49.540;8.574;2023-04-03T06:18:59;6.93;;;3.63;;
3347;SDS011;1687;49.540;8.574;2023-04-03T06:21:25;5.47;;;3.63;;
3347;SDS011;1687;49.540;8.574;2023-04-03T06:23:51;5.57;;;3.23;;
3347;SDS011;1687;49.540;8.574;2023-04-03T06:26:17;17.73;;;3.83;;
3347;SDS011;1687;49.540;8.574;2023-04-03T06:28:43;7.63;;;5.00;;
3347;SDS011;1687;49.540;8.574;2023-04-03T06:31:08;9.30;;;3.40;;
3347;SDS011;1687;49.540;8.574;2023-04-03T06:33:34;8.13;;;4.03;;
3347;SDS011;1687;49.540;8.574;2023-04-03T06:36:02;5.60;;;3.63;;
3347;SDS011;1687;49.540;8.574;2023-04-03T06:38:29;8.20;;;3.50;;
3347;SDS011;1687;49.540;8.574;2023-04-03T06:40:56;10.10;;;3.87;;
3347;SDS011;1687;49.540;8.574;2023-04-03T06:43:22;4.80;;;2.90;;
3347;SDS011;1687;49.540;8.574;2023-04-03T06:45:49;7.20;;;2.90;;
3347;SDS011;1687;49.540;8.574;2023-04-03T06:48:14;6.23;;;2.87;;
3347;SDS011;1687;49.540;8.574;2023-04-03T06:50:40;4.37;;;2.20;;
3347;SDS011;1687;49.540;8.574;2023-04-03T06:53:06;7.23;;;3.30;;
3347;SDS011;1687;49.540;8.574;2023-04-03T06:55:32;9.60;;;2.67;;
3347;SDS011;1687;49.540;8.574;2023-04-03T06:57:58;6.03;;;3.40;;
3347;SDS011;1687;49.540;8.574;2023-04-03T07:00:24;8.17;;;2.90;;
3347;SDS011;1687;49.540;8.574;2023-04-03T07:02:49;8.20;;;3.60;;
3347;SDS011;1687;49.540;8.574;2023-04-03T07:05:16;7.00;;;3.07;;
3347;SDS011;1687;49.540;8.574;2023-04-03T07:07:43;9.13;;;2.83;;
3347;SDS011;1687;49.540;8.574;2023-04-03T07:10:08;5.50;;;2.70;;
3347;SDS011;1687;49.540;8.574;2023-04-03T07:12:35;3.97;;;2.43;;
3347;SDS011;1687;49.540;8.574;2023-04-03T07:15:00;7.20;;;3.40;;
3347;SDS011;1687;49.540;8.574;2023-04-03T07:17:26;4.47;;;1.90;;
3347;SDS011;1687;49.540;8.574;2023-04-03T07:19:52;7.10;;;3.10;;
3347;SDS011;1687;49.540;8.574;2023-04-03T07:22:18;4.53;;;3.00;;
3347;SDS011;1687;49.540;8.574;2023-04-03T07:24:43;5.37;;;2.97;;
3347;SDS011;1687;49.540;8.574;2023-04-03T07:27:10;8.67;;;3.57;;
3347;SDS011;1687;49.540;8.574;2023-04-03T07:29:37;7.10;;;3.33;;
3347;SDS011;1687;49.540;8.574;2023-04-03T07:32:03;10.13;;;3.57;;
3347;SDS011;1687;49.540;8.574;2023-04-03T07:34:30;4.63;;;3.00;;
3347;SDS011;1687;49.540;8.574;2023-04-03T07:36:57;5.60;;;2.63;;
3347;SDS011;1687;49.540;8.574;2023-04-03T07:39:23;4.30;;;2.80;;
3347;SDS011;1687;49.540;8.574;2023-04-03T07:41:49;5.47;;;2.73;;
3347;SDS011;1687;49.540;8.574;2023-04-03T07:44:15;4.50;;;3.00;;
3347;SDS011;1687;49.540;8.574;2023-04-03T07:46:41;9.00;;;4.10;;
3347;SDS011;1687;49.540;8.574;2023-04-03T07:49:07;5.67;;;2.67;;
3347;SDS011;1687;49.540;8.574;2023-04-03T07:51:33;9.87;;;3.97;;
3347;SDS011;1687;49.540;8.574;2023-04-03T07:53:59;4.30;;;2.80;;
3347;SDS011;1687;49.540;8.574;2023-04-03T07:56:25;7.10;;;2.77;;
3347;SDS011;1687;49.540;8.574;2023-04-03T07:58:50;4.57;;;2.40;;
3347;SDS011;1687;49.540;8.574;2023-04-03T08:01:16;5.03;;;2.43;;
3347;SDS011;1687;49.540;8.574;2023-04-03T08:03:42;6.33;;;2.97;;
3347;SDS011;1687;49.540;8.574;2023-04-03T08:06:08;6.63;;;2.63;;
3347;SDS011;1687;49.540;8.574;2023-04-03T08:08:35;8.00;;;3.40;;
3347;SDS011;1687;49.540;8.574;2023-04-03T08:11:01;5.83;;;3.03;;
3347;SDS011;1687;49.540;8.574;2023-04-03T08:13:30;3.60;;;2.07;;
3347;SDS011;1687;49.540;8.574;2023-04-03T08:15:56;5.43;;;2.70;;
3347;SDS011;1687;49.540;8.574;2023-04-03T08:18:22;4.13;;;2.50;;
3347;SDS011;1687;49.540;8.574;2023-04-03T08:20:50;7.77;;;2.67;;
3347;SDS011;1687;49.540;8.574;2023-04-03T08:23:16;4.83;;;2.23;;
3347;SDS011;1687;49.540;8.574;2023-04-03T08:25:43;10.10;;;2.93;;
3347;SDS011;1687;49.540;8.574;2023-04-03T08:28:10;6.63;;;3.13;;
3347;SDS011;1687;49.540;8.574;2023-04-03T08:30:40;4.70;;;2.30;;
3347;SDS011;1687;49.540;8.574;2023-04-03T08:33:07;5.00;;;2.43;;
3347;SDS011;1687;49.540;8.574;2023-04-03T08:35:37;4.77;;;2.17;;
3347;SDS011;1687;49.540;8.574;2023-04-03T08:38:07;3.47;;;1.77;;
3347;SDS011;1687;49.540;8.574;2023-04-03T08:40:34;10.60;;;1.87;;
3347;SDS011;1687;49.540;8.574;2023-04-03T08:43:16;4.10;;;2.10;;
3347;SDS011;1687;49.540;8.574;2023-04-03T08:46:12;7.63;;;1.90;;
3347;SDS011;1687;49.540;8.574;2023-04-03T08:48:41;4.90;;;2.13;;
3347;SDS011;1687;49.540;8.574;2023-04-03T08:51:14;19.97;;;2.17;;
3347;SDS011;1687;49.540;8.574;2023-04-03T08:53:46;3.23;;;1.80;;
3347;SDS011;1687;49.540;8.574;2023-04-03T08:56:25;5.80;;;2.10;;
3347;SDS011;1687;49.540;8.574;2023-04-03T08:58:59;2.63;;;1.67;;
3347;SDS011;1687;49.540;8.574;2023-04-03T09:01:34;6.10;;;1.83;;
3347;SDS011;1687;49.540;8.574;2023-04-03T09:04:05;2.83;;;1.70;;
3347;SDS011;1687;49.540;8.574;2023-04-03T09:06:42;3.90;;;1.90;;
3347;SDS011;1687;49.540;8.574;2023-04-03T09:12:15;2.70;;;1.60;;
3347;SDS011;1687;49.540;8.574;2023-04-03T09:17:55;2.13;;;1.50;;
3347;SDS011;1687;49.540;8.574;2023-04-03T09:20:45;4.17;;;1.43;;
3347;SDS011;1687;49.540;8.574;2023-04-03T09:23:27;7.93;;;3.70;;
3347;SDS011;1687;49.540;8.574;2023-04-03T09:26:15;2.80;;;1.40;;
3347;SDS011;1687;49.540;8.574;2023-04-03T09:29:14;5.40;;;2.80;;
3347;SDS011;1687;49.540;8.574;2023-04-03T09:31:46;7.80;;;1.67;;
3347;SDS011;1687;49.540;8.574;2023-04-03T09:36:57;10.07;;;2.07;;
3347;SDS011;1687;49.540;8.574;2023-04-03T09:39:30;5.20;;;1.70;;
3347;SDS011;1687;49.540;8.574;2023-04-03T09:42:19;3.17;;;1.60;;
3347;SDS011;1687;49.540;8.574;2023-04-03T09:44:55;2.17;;;1.37;;
3347;SDS011;1687;49.540;8.574;2023-04-03T09:52:45;3.43;;;1.77;;
3347;SDS011;1687;49.540;8.574;2023-04-03T09:55:15;9.63;;;2.17;;
3347;SDS011;1687;49.540;8.574;2023-04-03T09:57:55;3.93;;;1.97;;
3347;SDS011;1687;49.540;8.574;2023-04-03T10:00:35;3.37;;;1.67;;
3347;SDS011;1687;49.540;8.574;2023-04-03T10:03:03;2.63;;;1.00;;
3347;SDS011;1687;49.540;8.574;2023-04-03T10:05:37;2.73;;;1.40;;
3347;SDS011;1687;49.540;8.574;2023-04-03T10:10:40;2.30;;;1.40;;
3347;SDS011;1687;49.540;8.574;2023-04-03T10:13:16;3.30;;;1.90;;
3347;SDS011;1687;49.540;8.574;2023-04-03T10:16:00;5.20;;;1.57;;
3347;SDS011;1687;49.540;8.574;2023-04-03T10:18:37;3.83;;;1.77;;
3347;SDS011;1687;49.540;8.574;2023-04-03T10:23:44;4.57;;;1.60;;
3347;SDS011;1687;49.540;8.574;2023-04-03T10:32:13;4.47;;;1.40;;
3347;SDS011;1687;49.540;8.574;2023-04-03T10:34:44;4.83;;;1.50;;
3347;SDS011;1687;49.540;8.574;2023-04-03T10:37:22;9.43;;;2.03;;
3347;SDS011;1687;49.540;8.574;2023-04-03T10:39:57;2.50;;;1.50;;
3347;SDS011;1687;49.540;8.574;2023-04-03T10:42:50;3.90;;;1.90;;
3347;SDS011;1687;49.540;8.574;2023-04-03T10:45:49;4.00;;;1.60;;
3347;SDS011;1687;49.540;8.574;2023-04-03T10:54:25;3.50;;;1.70;;
3347;SDS011;1687;49.540;8.574;2023-04-03T10:57:04;3.20;;;1.63;;
3347;SDS011;1687;49.540;8.574;2023-04-03T11:02:40;2.83;;;1.90;;
3347;SDS011;1687;49.540;8.574;2023-04-03T11:08:04;4.43;;;1.43;;
3347;SDS011;1687;49.540;8.574;2023-04-03T11:10:56;5.67;;;2.00;;
3347;SDS011;1687;49.540;8.574;2023-04-03T11:13:38;6.20;;;2.00;;
3347;SDS011;1687;49.540;8.574;2023-04-03T11:16:12;10.60;;;1.73;;
3347;SDS011;1687;49.540;8.574;2023-04-03T11:19:02;3.57;;;1.63;;
3347;SDS011;1687;49.540;8.574;2023-04-03T11:24:56;4.50;;;1.70;;
3347;SDS011;1687;49.540;8.574;2023-04-03T11:27:30;5.93;;;1.73;;
3347;SDS011;1687;49.540;8.574;2023-04-03T11:30:06;3.13;;;1.80;;
3347;SDS011;1687;49.540;8.574;2023-04-03T11:35:59;5.27;;;2.10;;
3347;SDS011;1687;49.540;8.574;2023-04-03T11:38:35;4.30;;;1.53;;
3347;SDS011;1687;49.540;8.574;2023-04-03T11:41:06;4.70;;;1.63;;
3347;SDS011;1687;49.540;8.574;2023-04-03T11:43:33;5.10;;;1.73;;
3347;SDS011;1687;49.540;8.574;2023-04-03T11:46:58;5.47;;;1.43;;
3347;SDS011;1687;49.540;8.574;2023-04-03T11:52:53;4.30;;;1.70;;
3347;SDS011;1687;49.540;8.574;2023-04-03T12:05:54;3.30;;;1.87;;
3347;SDS011;1687;49.540;8.574;2023-04-03T12:08:36;2.30;;;1.57;;
3347;SDS011;1687;49.540;8.574;2023-04-03T12:13:40;2.77;;;1.53;;
3347;SDS011;1687;49.540;8.574;2023-04-03T12:16:22;3.97;;;1.80;;
3347;SDS011;1687;49.540;8.574;2023-04-03T12:41:18;3.40;;;1.80;;
3347;SDS011;1687;49.540;8.574;2023-04-03T12:44:05;5.87;;;1.40;;
3347;SDS011;1687;49.540;8.574;2023-04-03T12:47:19;4.40;;;1.70;;
3347;SDS011;1687;49.540;8.574;2023-04-03T12:49:58;5.70;;;2.90;;
3347;SDS011;1687;49.540;8.574;2023-04-03T12:52:43;7.13;;;2.47;;
3347;SDS011;1687;49.540;8.574;2023-04-03T12:55:20;3.00;;;1.70;;
3347;SDS011;1687;49.540;8.574;2023-04-03T12:57:47;3.77;;;1.63;;
3347;SDS011;1687;49.540;8.574;2023-04-03T13:02:58;3.83;;;1.70;;
3347;SDS011;1687;49.540;8.574;2023-04-03T13:05:26;4.20;;;1.90;;
3347;SDS011;1687;49.540;8.574;2023-04-03T13:08:04;3.33;;;2.00;;
3347;SDS011;1687;49.540;8.574;2023-04-03T13:10:43;3.50;;;1.90;;
3347;SDS011;1687;49.540;8.574;2023-04-03T13:13:19;6.70;;;2.10;;
3347;SDS011;1687;49.540;8.574;2023-04-03T13:15:48;24.57;;;3.17;;
3347;SDS011;1687;49.540;8.574;2023-04-03T13:18:25;4.87;;;2.20;;
3347;SDS011;1687;49.540;8.574;2023-04-03T13:21:06;2.50;;;1.57;;
3347;SDS011;1687;49.540;8.574;2023-04-03T13:23:40;3.60;;;1.47;;
3347;SDS011;1687;49.540;8.574;2023-04-03T13:26:10;4.33;;;2.20;;
3347;SDS011;1687;49.540;8.574;2023-04-03T13:28:38;4.47;;;1.40;;
3347;SDS011;1687;49.540;8.574;2023-04-03T13:33:38;3.90;;;1.87;;
3347;SDS011;1687;49.540;8.574;2023-04-03T13:36:21;14.53;;;3.57;;
3347;SDS011;1687;49.540;8.574;2023-04-03T13:38:59;3.87;;;1.90;;
3347;SDS011;1687;49.540;8.574;2023-04-03T13:41:32;4.20;;;1.77;;
3347;SDS011;1687;49.540;8.574;2023-04-03T13:46:48;2.77;;;1.40;;
3347;SDS011;1687;49.540;8.574;2023-04-03T13:49:28;6.93;;;2.40;;
3347;SDS011;1687;49.540;8.574;2023-04-03T13:51:59;4.80;;;2.17;;
3347;SDS011;1687;49.540;8.574;2023-04-03T13:54:29;4.93;;;2.10;;
3347;SDS011;1687;49.540;8.574;2023-04-03T13:57:00;2.63;;;1.47;;
3347;SDS011;1687;49.540;8.574;2023-04-03T13:59:29;2.87;;;1.70;;
3347;SDS011;1687;49.540;8.574;2023-04-03T14:04:27;3.53;;;1.70;;
3347;SDS011;1687;49.540;8.574;2023-04-03T14:07:10;4.37;;;1.87;;
3347;SDS011;1687;49.540;8.574;2023-04-03T14:09:37;3.07;;;2.10;;
3347;SDS011;1687;49.540;8.574;2023-04-03T14:14:52;3.80;;;1.60;;
3347;SDS011;1687;49.540;8.574;2023-04-03T14:17:19;3.70;;;1.70;;
3347;SDS011;1687;49.540;8.574;2023-04-03T14:19:49;11.43;;;2.20;;
3347;SDS011;1687;49.540;8.574;2023-04-03T14:22:21;2.53;;;1.60;;
3347;SDS011;1687;49.540;8.574;2023-04-03T14:24:48;4.73;;;1.90;;
3347;SDS011;1687;49.540;8.574;2023-04-03T14:27:26;4.00;;;2.10;;
3347;SDS011;1687;49.540;8.574;2023-04-03T14:29:55;10.50;;;2.87;;
3347;SDS011;1687;49.540;8.574;2023-04-03T14:32:23;2.97;;;1.70;;
3347;SDS011;1687;49.540;8.574;2023-04-03T14:34:50;3.60;;;1.70;;
3347;SDS011;1687;49.540;8.574;2023-04-03T14:37:17;3.40;;;1.50;;
3347;SDS011;1687;49.540;8.574;2023-04-03T14:39:50;2.90;;;1.43;;
3347;SDS011;1687;49.540;8.574;2023-04-03T14:42:22;3.40;;;1.60;;
3347;SDS011;1687;49.540;8.574;2023-04-03T14:44:52;3.20;;;1.63;;
3347;SDS011;1687;49.540;8.574;2023-04-03T14:47:20;2.93;;;1.70;;
3347;SDS011;1687;49.540;8.574;2023-04-03T14:49:51;9.90;;;1.77;;
3347;SDS011;1687;49.540;8.574;2023-04-03T14:54:49;3.63;;;1.33;;
3347;SDS011;1687;49.540;8.574;2023-04-03T14:57:16;2.23;;;1.40;;
3347;SDS011;1687;49.540;8.574;2023-04-03T14:59:43;4.77;;;1.70;;
3347;SDS011;1687;49.540;8.574;2023-04-03T15:02:32;2.23;;;1.60;;
3347;SDS011;1687;49.540;8.574;2023-04-03T15:04:59;3.20;;;1.10;;
3347;SDS011;1687;49.540;8.574;2023-04-03T15:07:29;5.50;;;1.20;;
3347;SDS011;1687;49.540;8.574;2023-04-03T15:10:00;3.70;;;1.33;;
3347;SDS011;1687;49.540;8.574;2023-04-03T15:12:39;1.60;;;0.90;;
3347;SDS011;1687;49.540;8.574;2023-04-03T15:15:06;2.97;;;1.30;;
3347;SDS011;1687;49.540;8.574;2023-04-03T15:17:32;2.13;;;1.07;;
3347;SDS011;1687;49.540;8.574;2023-04-03T15:20:00;2.90;;;1.23;;
3347;SDS011;1687;49.540;8.574;2023-04-03T15:22:26;1.50;;;1.00;;
3347;SDS011;1687;49.540;8.574;2023-04-03T15:24:52;2.30;;;1.10;;
3347;SDS011;1687;49.540;8.574;2023-04-03T15:27:17;1.20;;;0.83;;
3347;SDS011;1687;49.540;8.574;2023-04-03T15:29:43;1.10;;;0.90;;
3347;SDS011;1687;49.540;8.574;2023-04-03T15:32:10;1.43;;;1.00;;
3347;SDS011;1687;49.540;8.574;2023-04-03T15:34:37;1.30;;;1.00;;
3347;SDS011;1687;49.540;8.574;2023-04-03T15:37:03;2.87;;;0.80;;
3347;SDS011;1687;49.540;8.574;2023-04-03T15:39:30;1.40;;;1.10;;
3347;SDS011;1687;49.540;8.574;2023-04-03T15:41:56;1.93;;;1.03;;
3347;SDS011;1687;49.540;8.574;2023-04-03T15:44:29;1.10;;;0.83;;
3347;SDS011;1687;49.540;8.574;2023-04-03T15:46:55;3.80;;;1.17;;
3347;SDS011;1687;49.540;8.574;2023-04-03T15:49:21;2.10;;;1.00;;
3347;SDS011;1687;49.540;8.574;2023-04-03T15:51:47;2.60;;;1.03;;
3347;SDS011;1687;49.540;8.574;2023-04-03T15:54:12;1.90;;;0.90;;
3347;SDS011;1687;49.540;8.574;2023-04-03T15:56:38;3.50;;;0.90;;
3347;SDS011;1687;49.540;8.574;2023-04-03T15:59:04;3.60;;;1.10;;
3347;SDS011;1687;49.540;8.574;2023-04-03T16:01:30;3.30;;;1.40;;
3347;SDS011;1687;49.540;8.574;2023-04-03T16:03:56;1.77;;;1.10;;
3347;SDS011;1687;49.540;8.574;2023-04-03T16:06:22;1.97;;;1.20;;
3347;SDS011;1687;49.540;8.574;2023-04-03T16:08:50;1.57;;;1.00;;
3347;SDS011;1687;49.540;8.574;2023-04-03T16:11:16;3.13;;;1.43;;
3347;SDS011;1687;49.540;8.574;2023-04-03T16:13:42;5.87;;;1.70;;
3347;SDS011;1687;49.540;8.574;2023-04-03T16:16:08;3.07;;;1.43;;
3347;SDS011;1687;49.540;8.574;2023-04-03T16:18:34;1.93;;;1.07;;
3347;SDS011;1687;49.540;8.574;2023-04-03T16:21:00;2.33;;;0.90;;
3347;SDS011;1687;49.540;8.574;2023-04-03T16:23:27;1.23;;;0.87;;
3347;SDS011;1687;49.540;8.574;2023-04-03T16:25:52;1.20;;;1.10;;
3347;SDS011;1687;49.540;8.574;2023-04-03T16:28:18;9.50;;;1.17;;
3347;SDS011;1687;49.540;8.574;2023-04-03T16:30:44;3.10;;;1.20;;
3347;SDS011;1687;49.540;8.574;2023-04-03T16:33:11;2.17;;;1.40;;
3347;SDS011;1687;49.540;8.574;2023-04-03T16:35:38;2.20;;;1.03;;
3347;SDS011;1687;49.540;8.574;2023-04-03T16:38:04;1.97;;;1.30;;
3347;SDS011;1687;49.540;8.574;2023-04-03T16:40:30;3.80;;;1.13;;
3347;SDS011;1687;49.540;8.574;2023-04-03T16:42:56;3.73;;;1.40;;
3347;SDS011;1687;49.540;8.574;2023-04-03T16:45:22;1.80;;;1.40;;
3347;SDS011;1687;49.540;8.574;2023-04-03T16:47:47;5.20;;;1.40;;
3347;SDS011;1687;49.540;8.574;2023-04-03T16:50:13;2.97;;;1.67;;
3347;SDS011;1687;49.540;8.574;2023-04-03T16:52:39;2.60;;;1.63;;
3347;SDS011;1687;49.540;8.574;2023-04-03T16:55:06;3.27;;;1.60;;
3347;SDS011;1687;49.540;8.574;2023-04-03T16:57:32;2.37;;;1.30;;
3347;SDS011;1687;49.540;8.574;2023-04-03T16:59:58;2.73;;;1.73;;
3347;SDS011;1687;49.540;8.574;2023-04-03T17:02:24;4.43;;;1.73;;
3347;SDS011;1687;49.540;8.574;2023-04-03T17:04:50;5.07;;;1.70;;
3347;SDS011;1687;49.540;8.574;2023-04-03T17:07:20;7.00;;;1.90;;
3347;SDS011;1687;49.540;8.574;2023-04-03T17:09:48;3.60;;;1.80;;
3347;SDS011;1687;49.540;8.574;2023-04-03T17:12:14;5.40;;;1.50;;
3347;SDS011;1687;49.540;8.574;2023-04-03T17:14:41;6.70;;;2.27;;
3347;SDS011;1687;49.540;8.574;2023-04-03T17:17:07;6.20;;;3.03;;